Ripley, Canada
Current Conditions -  °F | °C
As of 3:00 AM on Thursday 29 Jan 2015 (Local Time) from CYVV Reporting Station
Overcast Overcast  
Wind Chill: -12°   Ceiling: 7000
Heat Index: -5°   Visibility: 15mi
Dew Point: -12°   Wind: 13mph
Humidity: 59%   Direction: 160°SSE
Pressure: 30.07"   Gusts: NA
Location:  44.07°N, 81.58°W
Report Text: CYVV 290800Z 16011KT 15SM OVC070 M05/M12 A3007 RMK AC8 SLP195
Loading
Personal Weather Stations






























Interactive Weather Map New forecast layout! Learn more

10-Day Weather Forecast

Advertisements
Track Severe Weather on mobile